createdAt,value
2023-02-27T00:01:31.417Z,15.28
2023-02-27T00:04:02.498Z,15.14
2023-02-27T00:06:33.613Z,15.21
2023-02-27T00:09:04.585Z,15.35
2023-02-27T00:11:35.056Z,15.23
2023-02-27T00:14:05.702Z,15.06
2023-02-27T00:16:36.160Z,15.13
2023-02-27T00:19:06.621Z,15.38
2023-02-27T00:21:38.090Z,15.46
2023-02-27T00:24:08.992Z,15.39
2023-02-27T00:26:39.460Z,15.31
2023-02-27T00:29:09.939Z,15.36
2023-02-27T00:31:40.492Z,15.43
2023-02-27T00:34:10.997Z,15.37
2023-02-27T00:36:41.420Z,15.17
2023-02-27T00:39:12.038Z,15.18
2023-02-27T00:41:42.468Z,15.23
2023-02-27T00:44:12.949Z,15.09
2023-02-27T00:46:43.430Z,15.12
2023-02-27T00:49:13.918Z,14.98
2023-02-27T00:51:44.394Z,15.10
2023-02-27T00:54:14.961Z,15.13
2023-02-27T00:56:45.494Z,15.07
2023-02-27T00:59:17.103Z,14.94
2023-02-27T01:01:48.660Z,14.89
2023-02-27T01:04:20.233Z,14.72
2023-02-27T01:06:51.805Z,14.73
2023-02-27T01:09:22.400Z,14.75
2023-02-27T01:11:53.567Z,14.94
2023-02-27T01:14:24.004Z,14.90
2023-02-27T01:16:54.509Z,14.99
2023-02-27T01:19:25.393Z,14.61
2023-02-27T01:21:55.860Z,14.65
2023-02-27T01:24:26.840Z,14.51
2023-02-27T01:26:57.295Z,14.61
2023-02-27T01:29:27.807Z,14.62
2023-02-27T01:31:58.307Z,14.76
2023-02-27T01:34:28.789Z,15.45
2023-02-27T01:36:59.271Z,14.85
2023-02-27T01:39:29.737Z,14.84
2023-02-27T01:42:00.461Z,14.89
2023-02-27T01:44:32.615Z,14.89
2023-02-27T01:47:03.185Z,15.15
2023-02-27T01:49:35.833Z,15.06
2023-02-27T01:52:09.502Z,14.97
2023-02-27T01:54:42.736Z,14.96
2023-02-27T01:57:13.372Z,14.82
2023-02-27T01:59:44.450Z,14.75
2023-02-27T02:02:17.855Z,14.64
2023-02-27T02:04:49.446Z,14.74
2023-02-27T02:07:22.084Z,14.58
2023-02-27T02:09:56.488Z,14.57
2023-02-27T02:12:29.846Z,14.53
2023-02-27T02:15:00.542Z,14.56
2023-02-27T02:17:45.660Z,14.62
2023-02-27T02:20:21.641Z,14.65
2023-02-27T02:22:57.854Z,14.68
2023-02-27T02:25:42.901Z,14.78
2023-02-27T02:28:18.703Z,14.71
2023-02-27T02:31:06.871Z,14.92
2023-02-27T02:34:02.373Z,14.73
2023-02-27T02:36:55.253Z,14.66
2023-02-27T02:39:44.455Z,14.83
2023-02-27T02:42:44.198Z,14.84
2023-02-27T02:45:22.093Z,14.73
2023-02-27T02:47:56.995Z,14.60
2023-02-27T02:50:44.957Z,14.71
2023-02-27T02:53:37.514Z,14.63
2023-02-27T02:56:23.358Z,15.34
2023-02-27T02:58:59.175Z,15.07
2023-02-27T03:01:32.812Z,14.90
2023-02-27T03:04:11.875Z,14.95
2023-02-27T03:06:50.098Z,14.61
2023-02-27T03:09:27.269Z,14.68
2023-02-27T03:12:00.328Z,14.73
2023-02-27T03:14:35.987Z,14.67
2023-02-27T03:17:20.152Z,14.56
2023-02-27T03:20:02.996Z,14.55
2023-02-27T03:22:37.510Z,14.50
2023-02-27T03:25:11.743Z,14.62
2023-02-27T03:27:55.165Z,14.57
2023-02-27T03:30:38.900Z,14.59
2023-02-27T03:33:22.938Z,14.60
2023-02-27T03:36:14.218Z,14.76
2023-02-27T03:38:55.042Z,14.50
2023-02-27T03:41:39.550Z,14.67
2023-02-27T03:44:29.594Z,14.82
2023-02-27T03:47:03.557Z,14.78
2023-02-27T03:49:35.639Z,14.79
2023-02-27T03:52:07.932Z,14.73
2023-02-27T03:55:05.204Z,14.68
2023-02-27T03:57:38.024Z,14.61
2023-02-27T04:00:21.921Z,14.65
2023-02-27T04:02:55.831Z,14.80
2023-02-27T04:05:29.612Z,14.89
2023-02-27T04:08:33.767Z,14.82
2023-02-27T04:11:20.273Z,14.63
2023-02-27T04:14:16.459Z,14.70
2023-02-27T04:17:18.627Z,14.88
2023-02-27T04:20:08.007Z,15.09
2023-02-27T04:22:42.885Z,15.02
2023-02-27T04:25:48.372Z,14.84
2023-02-27T04:28:30.392Z,14.83
2023-02-27T04:31:22.724Z,14.83
2023-02-27T04:34:04.425Z,14.79
2023-02-27T04:36:41.627Z,14.72
2023-02-27T04:39:25.514Z,14.87
2023-02-27T04:42:02.124Z,15.05
2023-02-27T04:44:41.390Z,15.08
2023-02-27T04:47:17.935Z,14.72
2023-02-27T04:49:59.356Z,14.39
2023-02-27T04:52:35.039Z,14.89
2023-02-27T04:55:13.363Z,14.42
2023-02-27T05:00:50.527Z,14.25
2023-02-27T05:03:26.936Z,14.48
2023-02-27T05:06:00.910Z,13.44
2023-02-27T05:08:50.219Z,13.88
2023-02-27T05:11:24.918Z,13.44
2023-02-27T05:13:58.522Z,13.57
2023-02-27T05:16:35.718Z,13.92
2023-02-27T05:19:07.508Z,14.33
2023-02-27T05:21:42.010Z,13.94
2023-02-27T05:24:23.831Z,14.47
2023-02-27T05:27:12.963Z,14.83
2023-02-27T05:29:49.338Z,14.75
2023-02-27T05:32:34.337Z,14.84
2023-02-27T05:35:19.801Z,14.62
2023-02-27T05:37:53.449Z,14.92
2023-02-27T05:40:26.887Z,14.82
2023-02-27T05:45:42.369Z,14.53
2023-02-27T05:48:21.743Z,14.85
2023-02-27T05:50:55.779Z,14.45
2023-02-27T05:53:29.260Z,14.19
2023-02-27T05:58:33.431Z,14.23
2023-02-27T06:01:07.154Z,13.31
2023-02-27T06:03:39.520Z,13.73
2023-02-27T06:06:12.642Z,13.50
2023-02-27T06:08:43.437Z,13.92
2023-02-27T06:11:14.438Z,13.86
2023-02-27T06:13:44.925Z,13.94
2023-02-27T06:16:17.177Z,13.63
2023-02-27T06:18:47.676Z,14.05
2023-02-27T06:21:18.172Z,13.88
2023-02-27T06:23:48.761Z,13.87
2023-02-27T06:26:19.199Z,14.05
2023-02-27T06:28:49.653Z,13.52
2023-02-27T06:31:20.217Z,13.85
2023-02-27T06:33:50.837Z,13.80
2023-02-27T06:36:21.316Z,13.95
2023-02-27T06:38:51.788Z,13.89
2023-02-27T06:41:23.708Z,13.87
2023-02-27T06:43:55.838Z,13.85
2023-02-27T06:46:27.881Z,13.91
2023-02-27T06:48:58.663Z,14.19
2023-02-27T06:51:30.369Z,14.30
2023-02-27T06:54:00.870Z,14.47
2023-02-27T06:56:31.309Z,14.57
2023-02-27T06:59:01.833Z,14.45
2023-02-27T07:01:32.453Z,14.43
2023-02-27T07:04:02.961Z,14.86
2023-02-27T07:07:33.940Z,14.85
2023-02-27T07:09:06.710Z,14.85
2023-02-27T07:11:37.680Z,14.79
2023-02-27T07:14:09.778Z,15.01
2023-02-27T07:16:40.869Z,14.93
2023-02-27T07:19:12.181Z,15.13
2023-02-27T07:21:42.634Z,14.91
2023-02-27T07:24:13.290Z,15.09
2023-02-27T07:26:43.801Z,15.28
2023-02-27T07:29:15.112Z,15.34
2023-02-27T07:31:45.679Z,15.35
2023-02-27T07:34:16.378Z,15.09
2023-02-27T07:36:46.957Z,15.21
2023-02-27T07:39:17.535Z,15.39
2023-02-27T07:41:48.115Z,15.38
2023-02-27T07:44:18.686Z,15.16
2023-02-27T07:46:49.199Z,14.66
2023-02-27T07:49:19.725Z,14.43
2023-02-27T07:51:50.188Z,14.51
2023-02-27T07:54:20.752Z,15.27
2023-02-27T07:56:51.318Z,15.09
2023-02-27T07:59:21.823Z,15.05
2023-02-27T08:01:52.764Z,15.25
2023-02-27T08:04:23.773Z,15.39
2023-02-27T08:06:54.280Z,15.49
2023-02-27T08:09:26.193Z,15.68
2023-02-27T08:11:56.700Z,15.80
2023-02-27T08:14:27.374Z,15.55
2023-02-27T08:16:57.824Z,15.63
2023-02-27T08:19:28.347Z,16.00
2023-02-27T08:22:00.116Z,16.04
2023-02-27T08:24:30.748Z,16.01
2023-02-27T08:27:01.243Z,16.04
2023-02-27T08:29:33.328Z,16.14
2023-02-27T08:32:05.075Z,15.70
2023-02-27T08:34:35.584Z,15.65
2023-02-27T08:37:06.064Z,15.89
2023-02-27T08:39:36.641Z,15.86
2023-02-27T08:42:07.629Z,15.89
2023-02-27T08:44:38.291Z,16.02
2023-02-27T08:47:08.727Z,16.02
2023-02-27T08:49:39.204Z,16.16
2023-02-27T08:52:10.079Z,15.99
2023-02-27T08:54:40.642Z,15.47
2023-02-27T08:57:11.091Z,15.84
2023-02-27T08:59:41.627Z,16.02
2023-02-27T09:02:12.544Z,15.92
2023-02-27T09:04:43.026Z,16.07
2023-02-27T09:07:13.473Z,16.42
2023-02-27T09:09:45.384Z,16.76
2023-02-27T09:12:15.841Z,16.94
2023-02-27T09:14:46.306Z,17.02
2023-02-27T09:17:16.782Z,16.93
2023-02-27T09:19:48.337Z,16.96
2023-02-27T09:22:20.009Z,16.96
2023-02-27T09:24:50.452Z,17.12
2023-02-27T09:27:20.922Z,17.22
2023-02-27T09:29:56.544Z,16.85
2023-02-27T09:32:28.555Z,16.66
2023-02-27T09:34:59.208Z,17.06
2023-02-27T09:37:29.693Z,17.01
2023-02-27T09:40:00.145Z,17.20
2023-02-27T09:42:33.526Z,17.27
2023-02-27T09:45:06.950Z,17.71
2023-02-27T09:47:40.324Z,17.70
2023-02-27T09:50:34.234Z,17.85
2023-02-27T09:53:06.432Z,17.48
2023-02-27T09:55:40.230Z,17.84
2023-02-27T09:58:35.716Z,17.79
2023-02-27T10:01:09.057Z,17.95
2023-02-27T10:03:51.147Z,18.28
2023-02-27T10:06:31.243Z,17.96
2023-02-27T10:09:22.845Z,17.93
2023-02-27T10:12:20.153Z,18.02
2023-02-27T10:14:53.517Z,17.93
2023-02-27T10:17:30.621Z,19.24
2023-02-27T10:20:04.708Z,19.24
2023-02-27T10:22:42.128Z,20.21
2023-02-27T10:25:30.880Z,21.19
2023-02-27T10:27:53.256Z,22.81
2023-02-27T10:30:32.900Z,23.84
2023-02-27T10:33:28.810Z,26.66
2023-02-27T10:36:01.317Z,27.76
2023-02-27T10:38:40.177Z,30.67
2023-02-27T10:41:13.858Z,32.17
2023-02-27T10:43:44.655Z,33.33
2023-02-27T10:46:18.287Z,33.91
2023-02-27T10:48:49.004Z,33.88
2023-02-27T10:51:28.964Z,33.64
2023-02-27T10:54:18.863Z,35.13
2023-02-27T10:57:00.942Z,35.52
2023-02-27T10:59:37.162Z,36.42
2023-02-27T11:02:10.157Z,35.89
2023-02-27T11:04:43.782Z,35.17
2023-02-27T11:07:17.831Z,34.80
2023-02-27T11:09:51.196Z,33.20
2023-02-27T11:12:30.560Z,31.25
2023-02-27T11:15:07.039Z,29.07
2023-02-27T11:17:38.658Z,28.59
2023-02-27T11:20:27.215Z,29.86
2023-02-27T11:23:09.488Z,27.92
2023-02-27T11:25:40.338Z,25.91
2023-02-27T11:28:25.895Z,23.72
2023-02-27T11:31:00.402Z,21.77
2023-02-27T11:33:39.432Z,21.28
2023-02-27T11:36:11.271Z,21.50
2023-02-27T11:38:41.786Z,19.56
2023-02-27T11:41:12.951Z,19.28
2023-02-27T11:43:55.574Z,19.49
2023-02-27T11:46:46.838Z,18.95
2023-02-27T11:49:02.021Z,19.18
2023-02-27T11:52:05.708Z,19.04
2023-02-27T11:54:39.043Z,18.93
2023-02-27T11:57:16.068Z,18.59
2023-02-27T11:59:52.965Z,18.87
2023-02-27T12:02:32.192Z,18.85
2023-02-27T12:05:06.807Z,18.48
2023-02-27T12:07:40.233Z,17.95
2023-02-27T12:10:19.444Z,17.76
2023-02-27T12:13:44.991Z,18.04
2023-02-27T12:16:54.313Z,17.48
2023-02-27T12:19:47.078Z,18.75
2023-02-27T12:22:38.767Z,19.09
2023-02-27T12:25:40.372Z,19.32
2023-02-27T12:28:39.393Z,18.88
2023-02-27T12:31:27.807Z,19.11
2023-02-27T12:34:16.216Z,18.56
2023-02-27T12:36:48.897Z,18.26
2023-02-27T12:39:24.873Z,18.23
2023-02-27T12:42:19.032Z,18.00
2023-02-27T12:45:17.840Z,18.30
2023-02-27T12:48:15.445Z,17.66
2023-02-27T12:51:00.780Z,17.81
2023-02-27T12:53:45.900Z,18.73
2023-02-27T12:56:21.839Z,18.96
2023-02-27T12:59:16.198Z,19.48
2023-02-27T13:02:10.503Z,19.26
2023-02-27T13:05:07.289Z,18.90
2023-02-27T13:07:58.620Z,19.13
2023-02-27T13:10:44.152Z,18.89
2023-02-27T13:13:29.493Z,18.90
2023-02-27T13:16:19.204Z,19.90
2023-02-27T13:19:07.246Z,19.79
2023-02-27T13:21:49.318Z,21.49
2023-02-27T13:24:31.188Z,21.64
2023-02-27T13:27:10.345Z,21.64
2023-02-27T13:29:45.789Z,23.06
2023-02-27T13:32:29.998Z,23.74
2023-02-27T13:35:09.692Z,23.54
2023-02-27T13:38:05.595Z,24.18
2023-02-27T13:40:42.177Z,22.90
2023-02-27T13:43:30.392Z,22.85
2023-02-27T13:46:03.436Z,21.24
2023-02-27T13:48:42.297Z,21.24
2023-02-27T13:51:32.842Z,20.98
2023-02-27T13:54:20.588Z,19.39
2023-02-27T13:57:00.055Z,19.39
2023-02-27T13:59:39.825Z,17.94
2023-02-27T14:02:18.519Z,18.36
2023-02-27T14:04:51.816Z,17.72
2023-02-27T14:07:27.742Z,18.44
2023-02-27T14:10:13.299Z,16.85
2023-02-27T14:12:46.669Z,17.04
2023-02-27T14:15:26.428Z,17.55
2023-02-27T14:18:11.408Z,17.43
2023-02-27T14:20:33.416Z,17.23
2023-02-27T14:23:27.470Z,16.98
2023-02-27T14:26:00.898Z,17.19
2023-02-27T14:28:53.622Z,17.32
2023-02-27T14:31:27.309Z,16.30
2023-02-27T14:34:00.627Z,16.65
2023-02-27T14:36:34.950Z,17.69
2023-02-27T14:39:05.641Z,16.40
2023-02-27T14:41:53.966Z,16.92
2023-02-27T14:44:28.030Z,17.03
2023-02-27T14:46:59.898Z,17.20
2023-02-27T14:49:33.199Z,17.32
2023-02-27T14:52:15.120Z,16.67
2023-02-27T14:54:45.497Z,17.01
2023-02-27T14:57:21.745Z,17.38
2023-02-27T14:59:54.211Z,17.89
2023-02-27T15:02:30.604Z,17.88
2023-02-27T15:05:06.733Z,18.23
2023-02-27T15:07:37.425Z,18.30
2023-02-27T15:10:10.744Z,17.91
2023-02-27T15:12:41.528Z,18.79
2023-02-27T15:15:17.553Z,17.55
2023-02-27T15:17:48.737Z,18.17
2023-02-27T15:20:36.969Z,17.25
2023-02-27T15:23:28.676Z,17.61
2023-02-27T15:26:00.573Z,16.83
2023-02-27T15:28:33.865Z,17.35
2023-02-27T15:31:04.351Z,17.32
2023-02-27T15:33:35.312Z,16.65
2023-02-27T15:36:06.327Z,16.59
2023-02-27T15:38:39.170Z,16.54
2023-02-27T15:41:12.796Z,16.70
2023-02-27T15:43:43.578Z,16.70
2023-02-27T15:46:13.999Z,16.75
2023-02-27T15:48:44.405Z,16.55
2023-02-27T15:51:14.791Z,16.72
2023-02-27T15:53:50.868Z,16.93
2023-02-27T15:56:24.165Z,16.55
2023-02-27T15:59:00.569Z,16.83
2023-02-27T16:01:35.348Z,16.76
2023-02-27T16:04:08.908Z,16.85
2023-02-27T16:06:44.130Z,17.23
2023-02-27T16:09:38.549Z,17.34
2023-02-27T16:12:32.625Z,17.11
2023-02-27T16:15:20.098Z,17.36
2023-02-27T16:18:06.843Z,17.34
2023-02-27T16:20:55.175Z,17.15
2023-02-27T16:23:32.184Z,17.27
2023-02-27T16:26:21.095Z,17.07
2023-02-27T16:28:55.276Z,17.20
2023-02-27T16:31:28.593Z,17.08
2023-02-27T16:34:01.948Z,16.83
2023-02-27T16:36:34.097Z,16.99
2023-02-27T16:39:06.288Z,17.03
2023-02-27T16:41:37.093Z,17.06
2023-02-27T16:44:07.524Z,16.83
2023-02-27T16:46:37.910Z,17.14
2023-02-27T16:49:19.547Z,17.37
2023-02-27T16:51:41.935Z,16.53
2023-02-27T16:54:13.853Z,16.96
2023-02-27T16:56:46.513Z,17.08
2023-02-27T16:59:37.556Z,16.95
2023-02-27T17:02:11.079Z,16.93
2023-02-27T17:04:43.562Z,16.83
2023-02-27T17:07:17.119Z,16.71
2023-02-27T17:09:55.009Z,17.01
2023-02-27T17:12:25.538Z,17.17
2023-02-27T17:14:56.447Z,16.89
2023-02-27T17:17:26.859Z,16.45
2023-02-27T17:19:57.363Z,17.06
2023-02-27T17:22:27.759Z,17.03
2023-02-27T17:24:58.165Z,17.02
2023-02-27T17:27:28.562Z,16.65
2023-02-27T17:29:59.068Z,16.76
2023-02-27T17:32:30.544Z,16.64
2023-02-27T17:35:01.059Z,16.87
2023-02-27T17:37:31.461Z,16.75
2023-02-27T17:40:03.469Z,15.79
2023-02-27T17:42:35.596Z,16.23
2023-02-27T17:45:06.616Z,16.37
2023-02-27T17:47:37.612Z,15.95
2023-02-27T17:50:08.688Z,16.32
2023-02-27T17:52:39.360Z,16.16
2023-02-27T17:55:10.612Z,16.15
2023-02-27T17:57:41.416Z,16.16
2023-02-27T18:00:17.039Z,15.86
2023-02-27T18:02:48.246Z,15.85
2023-02-27T18:05:18.905Z,15.63
2023-02-27T18:07:49.390Z,15.88
2023-02-27T18:10:19.797Z,15.67
2023-02-27T18:12:50.280Z,16.13
2023-02-27T18:15:20.678Z,16.12
2023-02-27T18:17:51.661Z,16.17
2023-02-27T18:20:22.153Z,16.14
2023-02-27T18:22:52.573Z,16.25
2023-02-27T18:25:23.654Z,16.04
2023-02-27T18:27:56.115Z,16.26
2023-02-27T18:30:28.903Z,15.77
2023-02-27T18:33:00.323Z,15.67
2023-02-27T18:35:30.736Z,15.51
2023-02-27T18:38:03.390Z,15.45
2023-02-27T18:40:34.295Z,15.82
2023-02-27T18:43:05.109Z,16.20
2023-02-27T18:45:35.995Z,15.91
2023-02-27T18:48:06.702Z,15.82
2023-02-27T18:50:37.255Z,15.67
2023-02-27T18:53:07.698Z,15.62
2023-02-27T18:55:38.102Z,15.43
2023-02-27T18:58:08.505Z,15.40
2023-02-27T19:00:38.950Z,15.29
2023-02-27T19:03:09.578Z,15.33
2023-02-27T19:05:43.156Z,15.62
2023-02-27T19:08:13.927Z,15.53
2023-02-27T19:10:44.426Z,15.90
2023-02-27T19:13:14.859Z,15.90
2023-02-27T19:15:45.302Z,15.79
2023-02-27T19:18:15.816Z,15.71
2023-02-27T19:20:46.420Z,15.76
2023-02-27T19:23:16.926Z,15.90
2023-02-27T19:25:49.132Z,15.72
2023-02-27T19:28:19.561Z,15.64
2023-02-27T19:30:50.050Z,15.45
2023-02-27T19:33:20.609Z,15.66
2023-02-27T19:35:51.367Z,15.40
2023-02-27T19:38:21.792Z,15.41
2023-02-27T19:40:52.171Z,15.25
2023-02-27T19:43:22.578Z,15.48
2023-02-27T19:45:52.970Z,15.72
2023-02-27T19:48:23.359Z,15.37
2023-02-27T19:50:53.959Z,15.24
2023-02-27T19:53:25.933Z,15.57
2023-02-27T19:56:00.922Z,15.38
2023-02-27T19:58:33.646Z,15.30
2023-02-27T20:01:05.313Z,15.58
2023-02-27T20:03:36.955Z,15.23
2023-02-27T20:06:09.998Z,15.35
2023-02-27T20:08:40.459Z,15.26
2023-02-27T20:11:10.844Z,15.32
2023-02-27T20:13:41.771Z,15.16
2023-02-27T20:16:14.938Z,15.09
2023-02-27T20:18:46.065Z,15.07
2023-02-27T20:21:22.897Z,14.95
2023-02-27T20:23:53.857Z,14.73
2023-02-27T20:26:36.367Z,15.01
2023-02-27T20:29:09.876Z,15.22
2023-02-27T20:31:43.117Z,14.67
2023-02-27T20:34:15.997Z,14.56
2023-02-27T20:36:46.378Z,14.81
2023-02-27T20:39:16.958Z,14.85
2023-02-27T20:41:47.928Z,15.09
2023-02-27T20:44:18.877Z,15.36
2023-02-27T20:46:49.794Z,15.32
2023-02-27T20:49:20.982Z,15.18
2023-02-27T20:51:51.577Z,15.15
2023-02-27T20:54:22.172Z,15.17
2023-02-27T20:56:54.639Z,14.89
2023-02-27T20:59:26.063Z,14.99
2023-02-27T21:01:57.212Z,14.97
2023-02-27T21:04:32.339Z,14.38
2023-02-27T21:07:02.348Z,14.90
2023-02-27T21:09:33.106Z,15.17
2023-02-27T21:12:03.689Z,14.64
2023-02-27T21:14:35.097Z,14.47
2023-02-27T21:17:06.042Z,13.94
2023-02-27T21:19:36.997Z,14.01
2023-02-27T21:22:09.458Z,14.54
2023-02-27T21:24:40.118Z,14.24
2023-02-27T21:27:10.706Z,14.43
2023-02-27T21:29:41.364Z,14.43
2023-02-27T21:32:11.988Z,14.52
2023-02-27T21:34:42.573Z,14.65
2023-02-27T21:37:13.117Z,14.64
2023-02-27T21:39:45.554Z,14.30
2023-02-27T21:42:16.124Z,14.06
2023-02-27T21:44:47.822Z,14.03
2023-02-27T21:47:19.172Z,13.79
2023-02-27T21:49:49.788Z,14.12
2023-02-27T21:52:21.396Z,14.49
2023-02-27T21:54:52.140Z,14.28
2023-02-27T21:57:23.175Z,14.09
2023-02-27T21:59:54.900Z,13.89
2023-02-27T22:02:26.633Z,14.34
2023-02-27T22:04:57.411Z,14.39
2023-02-27T22:07:28.009Z,14.63
2023-02-27T22:09:58.602Z,14.57
2023-02-27T22:12:29.204Z,14.61
2023-02-27T22:14:59.943Z,14.45
2023-02-27T22:17:30.523Z,14.52
2023-02-27T22:20:02.162Z,14.54
2023-02-27T22:22:32.948Z,14.47
2023-02-27T22:25:03.546Z,14.46
2023-02-27T22:27:34.183Z,14.23
2023-02-27T22:30:04.859Z,14.12
2023-02-27T22:32:35.411Z,13.93
2023-02-27T22:35:06.390Z,14.24
2023-02-27T22:37:36.926Z,14.13
2023-02-27T22:40:08.367Z,14.15
2023-02-27T22:42:38.935Z,14.22
2023-02-27T22:45:10.152Z,14.16
2023-02-27T22:47:40.814Z,14.04
2023-02-27T22:50:13.210Z,14.05
2023-02-27T22:52:43.760Z,14.02
2023-02-27T22:55:14.477Z,14.09
2023-02-27T22:57:47.767Z,14.23
2023-02-27T23:00:18.423Z,14.20
2023-02-27T23:02:48.953Z,14.13
2023-02-27T23:05:19.558Z,14.13
2023-02-27T23:07:50.116Z,14.16
2023-02-27T23:10:20.864Z,13.95
2023-02-27T23:12:51.538Z,14.08
2023-02-27T23:15:22.260Z,13.93
2023-02-27T23:17:58.315Z,14.11
2023-02-27T23:20:25.186Z,14.18
2023-02-27T23:22:55.742Z,14.11
2023-02-27T23:25:26.349Z,13.97
2023-02-27T23:27:56.878Z,13.91
2023-02-27T23:30:27.481Z,13.92
2023-02-27T23:32:59.021Z,13.85
2023-02-27T23:35:30.518Z,13.82
2023-02-27T23:38:01.073Z,13.79
2023-02-27T23:40:31.810Z,13.79
2023-02-27T23:43:03.449Z,13.88
2023-02-27T23:45:44.794Z,13.70
2023-02-27T23:48:21.558Z,13.62
2023-02-27T23:50:53.923Z,13.69
2023-02-27T23:53:27.356Z,13.87
2023-02-27T23:55:59.549Z,13.82
2023-02-27T23:58:37.484Z,13.84
